Time;durP1;ratioP1;P1;durP2;ratioP2;P2;SDS_P1;SDS_P2;PMS_P1;PMS_P2;Temp;Humidity;BMP_temperature;BMP_pressure;BME280_temperature;BME280_humidity;BME280_pressure;Samples;Min_cycle;Max_cycle;Signal;HPM_P1;HPM_P2
2022/12/07 00:01:14;;;;;;;;;;;;;;;;;;5065402;28;19932;-65
2022/12/07 00:03:40;;;;;;;;;;;;;;;;;;5063484;28;19955;-64
2022/12/07 00:06:06;;;;;;;;;;;;;;;;;;5061942;28;19940;-57
2022/12/07 00:08:32;;;;;;;;;;;;;;;;;;5059590;28;19928;-57
2022/12/07 00:11:17;;;;;;;;;;;;;;;;;;5061631;28;20403;-56
2022/12/07 00:13:43;;;;;;;;;;;;;;;;;;5063615;28;20015;-54
2022/12/07 00:16:10;;;;;;;;;;;;;;;;;;5061322;28;20309;-56
2022/12/07 00:18:36;;;;;;;;;;;;;;;;;;5062018;28;19925;-58
2022/12/07 00:21:02;;;;;;;;;;;;;;;;;;5065022;28;20569;-57
2022/12/07 00:23:28;;;;;;;;;;;;;;;;;;5059043;28;19940;-58
2022/12/07 00:25:53;;;;;;;;;;;;;;;;;;5062789;28;19929;-57
2022/12/07 00:28:18;;;;;;;;;;;;;;;;;;5063254;28;19928;-56
2022/12/07 00:30:43;;;;;;;;;;;;;;;;;;5065329;28;20019;-62
2022/12/07 00:33:09;;;;;;;;;;;;;;;;;;5066246;28;20760;-56
2022/12/07 00:35:34;;;;;;;;;;;;;;;;;;5066585;28;19935;-55
2022/12/07 00:37:59;;;;;;;;;;;;;;;;;;5064277;28;20409;-57
2022/12/07 00:40:25;;;;;;;;;;;;;;;;;;5065042;28;19931;-57
2022/12/07 00:42:50;;;;;;;;;;;;;;;;;;5062493;28;19928;-57
2022/12/07 00:45:15;;;;;;;;;;;;;;;;;;5064997;28;19928;-55
2022/12/07 00:47:41;;;;;;;;;;;;;;;;;;5067146;28;19986;-58
2022/12/07 00:50:06;;;;;;;;;;;;;;;;;;5065024;28;19944;-58
2022/12/07 00:52:32;;;;;;;;;;;;;;;;;;5063812;28;19940;-56
2022/12/07 00:54:57;;;;;;;;;;;;;;;;;;5055390;28;19928;-57
2022/12/07 00:57:22;;;;;;;;;;;;;;;;;;5063975;28;19921;-57
2022/12/07 00:59:48;;;;;;;;;;;;;;;;;;5059678;28;19924;-59
2022/12/07 01:02:13;;;;;;;;;;;;;;;;;;5056208;28;19954;-58
2022/12/07 01:04:38;;;;;;;;;;;;;;;;;;5058964;28;20307;-57
2022/12/07 01:07:03;;;;;;;;;;;;;;;;;;5057274;28;20007;-56
2022/12/07 01:09:29;;;;;;;;;;;;;;;;;;5054109;28;20319;-58
2022/12/07 01:11:54;;;;;;;;;;;;;;;;;;5057729;28;19932;-56
2022/12/07 01:14:19;;;;;;;;;;;;;;;;;;5056141;28;19929;-56
2022/12/07 01:16:45;;;;;;;;;;;;;;;;;;5053458;28;19935;-56
2022/12/07 01:19:10;;;;;;;;;;;;;;;;;;5057481;28;19975;-58
2022/12/07 01:21:37;;;;;;;;;;;;;;;;;;5058770;28;19928;-62
2022/12/07 01:24:06;;;;;;;;;;;;;;;;;;5055164;28;19924;-63
2022/12/07 01:26:32;;;;;;;;;;;;;;;;;;5056306;28;19982;-62
2022/12/07 01:28:58;;;;;;;;;;;;;;;;;;5052931;28;19977;-62
2022/12/07 01:31:25;;;;;;;;;;;;;;;;;;5056584;28;20417;-62
2022/12/07 01:33:51;;;;;;;;;;;;;;;;;;5055385;28;19947;-62
2022/12/07 01:36:22;;;;;;;;;;;;;;;;;;5057253;28;19928;-62
2022/12/07 01:38:48;;;;;;;;;;;;;;;;;;5060285;28;19935;-62
2022/12/07 01:41:14;;;;;;;;;;;;;;;;;;5063008;28;19981;-62
2022/12/07 01:43:58;;;;;;;;;;;;;;;;;;5077539;28;19932;-62
2022/12/07 01:46:23;;;;;;;;;;;;;;;;;;5065037;28;19934;-64
2022/12/07 01:48:49;;;;;;;;;;;;;;;;;;5063054;28;19932;-63
2022/12/07 01:51:15;;;;;;;;;;;;;;;;;;5065980;28;19943;-64
2022/12/07 01:53:43;;;;;;;;;;;;;;;;;;5060825;28;19933;-63
2022/12/07 01:56:10;;;;;;;;;;;;;;;;;;5063675;28;19980;-63
2022/12/07 01:58:35;;;;;;;;;;;;;;;;;;5066272;28;19924;-63
2022/12/07 02:01:00;;;;;;;;;;;;;;;;;;5062988;28;19931;-64
2022/12/07 02:03:29;;;;;;;;;;;;;;;;;;5062983;28;19940;-64
2022/12/07 02:05:55;;;;;;;;;;;;;;;;;;5064369;28;19944;-64
2022/12/07 02:08:20;;;;;;;;;;;;;;;;;;5061819;28;19924;-64
2022/12/07 02:10:46;;;;;;;;;;;;;;;;;;5062235;28;19977;-63
2022/12/07 02:13:13;;;;;;;;;;;;;;;;;;5064276;28;19924;-65
2022/12/07 02:15:59;;;;;;;;;;;;;;;;;;5060992;28;20015;-64
2022/12/07 02:18:25;;;;;;;;;;;;;;;;;;5064143;28;20039;-63
2022/12/07 02:21:22;;;;;;;;;;;;;;;;;;5060040;28;20467;-63
2022/12/07 02:23:56;;;;;;;;;;;;;;;;;;5013187;28;19966;-65
2022/12/07 02:26:40;;;;;;;;;;;;;;;;;;5062834;28;19951;-64
2022/12/07 02:29:09;;;;;;;;;;;;;;;;;;5053504;28;19928;-64
2022/12/07 02:31:36;;;;;;;;;;;;;;;;;;5056471;28;19932;-64
2022/12/07 02:34:07;;;;;;;;;;;;;;;;;;5058212;28;20699;-64
2022/12/07 02:36:36;;;;;;;;;;;;;;;;;;5058763;28;19929;-63
2022/12/07 02:39:06;;;;;;;;;;;;;;;;;;5061403;28;19928;-64
2022/12/07 02:41:35;;;;;;;;;;;;;;;;;;5058469;28;20298;-63
2022/12/07 02:44:03;;;;;;;;;;;;;;;;;;5059315;28;19959;-64
2022/12/07 02:46:31;;;;;;;;;;;;;;;;;;5061388;28;19932;-64
2022/12/07 02:48:59;;;;;;;;;;;;;;;;;;5054363;28;19924;-64
2022/12/07 02:51:24;;;;;;;;;;;;;;;;;;5057782;28;19924;-63
2022/12/07 02:53:49;;;;;;;;;;;;;;;;;;5058271;28;20260;-64
2022/12/07 02:56:15;;;;;;;;;;;;;;;;;;5055789;28;19939;-64
2022/12/07 02:58:46;;;;;;;;;;;;;;;;;;5056091;28;19924;-64
2022/12/07 03:01:20;;;;;;;;;;;;;;;;;;5055686;28;20015;-64
2022/12/07 03:03:49;;;;;;;;;;;;;;;;;;5060296;28;21042;-64
2022/12/07 03:06:14;;;;;;;;;;;;;;;;;;5057318;28;19928;-64
2022/12/07 03:09:05;;;;;;;;;;;;;;;;;;5057182;28;19935;-64
2022/12/07 03:11:41;;;;;;;;;;;;;;;;;;5050406;28;19940;-64
2022/12/07 03:14:15;;;;;;;;;;;;;;;;;;5054905;28;20296;-64
2022/12/07 03:16:47;;;;;;;;;;;;;;;;;;5057753;28;19932;-64
2022/12/07 03:19:14;;;;;;;;;;;;;;;;;;5052904;28;20351;-63
2022/12/07 03:21:42;;;;;;;;;;;;;;;;;;5058437;28;19940;-63
2022/12/07 03:24:20;;;;;;;;;;;;;;;;;;5057308;28;19932;-63
2022/12/07 03:26:48;;;;;;;;;;;;;;;;;;5055685;28;19928;-64
2022/12/07 03:29:19;;;;;;;;;;;;;;;;;;5052021;28;19933;-64
2022/12/07 03:31:46;;;;;;;;;;;;;;;;;;5051911;28;19929;-64
2022/12/07 03:34:22;;;;;;;;;;;;;;;;;;5054049;28;20324;-63
2022/12/07 03:36:50;;;;;;;;;;;;;;;;;;5057667;28;19977;-64
2022/12/07 03:39:21;;;;;;;;;;;;;;;;;;5054377;28;20272;-63
2022/12/07 03:41:47;;;;;;;;;;;;;;;;;;5053674;28;19932;-63
2022/12/07 03:44:12;;;;;;;;;;;;;;;;;;5055453;28;20353;-64
2022/12/07 03:46:41;;;;;;;;;;;;;;;;;;5060324;28;19929;-64
2022/12/07 03:49:09;;;;;;;;;;;;;;;;;;5064706;28;19932;-63
2022/12/07 03:51:41;;;;;;;;;;;;;;;;;;5065694;28;19921;-63
2022/12/07 03:54:28;;;;;;;;;;;;;;;;;;5062220;28;19928;-63
2022/12/07 03:56:54;;;;;;;;;;;;;;;;;;5063748;28;20310;-63
2022/12/07 03:59:20;;;;;;;;;;;;;;;;;;5060814;28;20004;-63
2022/12/07 04:01:51;;;;;;;;;;;;;;;;;;5064218;28;19960;-63
2022/12/07 04:04:17;;;;;;;;;;;;;;;;;;5064154;28;20383;-63
2022/12/07 04:06:42;;;;;;;;;;;;;;;;;;5066624;28;19931;-67
2022/12/07 04:09:07;;;;;;;;;;;;;;;;;;5065829;28;19975;-64
2022/12/07 04:11:32;;;;;;;;;;;;;;;;;;5063467;28;20017;-64
2022/12/07 04:16:42;;;;;;;;;;;;;;;;;;5059188;28;20428;-64
2022/12/07 04:19:07;;;;;;;;;;;;;;;;;;5063021;28;19932;-64
2022/12/07 04:21:32;;;;;;;;;;;;;;;;;;5064030;28;20034;-64
2022/12/07 04:23:57;;;;;;;;;;;;;;;;;;5058604;28;19932;-64
2022/12/07 04:26:23;;;;;;;;;;;;;;;;;;5062216;28;20466;-64
2022/12/07 04:28:48;;;;;;;;;;;;;;;;;;5059102;28;19928;-64
2022/12/07 04:31:13;;;;;;;;;;;;;;;;;;5060932;28;20291;-64
2022/12/07 04:33:38;;;;;;;;;;;;;;;;;;5060626;28;20083;-64
2022/12/07 04:36:04;;;;;;;;;;;;;;;;;;5064381;28;19928;-64
2022/12/07 04:38:29;;;;;;;;;;;;;;;;;;5063266;28;19935;-64
2022/12/07 04:40:55;;;;;;;;;;;;;;;;;;5057549;28;20371;-64
2022/12/07 04:43:20;;;;;;;;;;;;;;;;;;5062869;28;19933;-64
2022/12/07 04:45:48;;;;;;;;;;;;;;;;;;5058759;28;20470;-64
2022/12/07 04:48:14;;;;;;;;;;;;;;;;;;5061615;28;19974;-64
2022/12/07 04:50:39;;;;;;;;;;;;;;;;;;5063985;28;20372;-64
2022/12/07 04:53:04;;;;;;;;;;;;;;;;;;5062331;28;19929;-64
2022/12/07 04:55:30;;;;;;;;;;;;;;;;;;5061492;28;19933;-65
2022/12/07 04:57:55;;;;;;;;;;;;;;;;;;5059997;28;19932;-64
2022/12/07 05:00:20;;;;;;;;;;;;;;;;;;5059761;28;19924;-64
2022/12/07 05:02:46;;;;;;;;;;;;;;;;;;5057667;28;19929;-64
2022/12/07 05:05:11;;;;;;;;;;;;;;;;;;5058431;28;20401;-64
2022/12/07 05:07:36;;;;;;;;;;;;;;;;;;5061444;28;19937;-64
2022/12/07 05:10:02;;;;;;;;;;;;;;;;;;5058250;28;19924;-65
2022/12/07 05:12:27;;;;;;;;;;;;;;;;;;5062924;28;19984;-64
2022/12/07 05:14:52;;;;;;;;;;;;;;;;;;5058836;28;20400;-64
2022/12/07 05:17:18;;;;;;;;;;;;;;;;;;5059425;28;19928;-63
2022/12/07 05:19:43;;;;;;;;;;;;;;;;;;5058286;28;19978;-65
2022/12/07 05:22:09;;;;;;;;;;;;;;;;;;5059425;28;19925;-65
2022/12/07 05:24:34;;;;;;;;;;;;;;;;;;5062778;28;19949;-65
2022/12/07 05:27:00;;;;;;;;;;;;;;;;;;5062280;28;19932;-64
2022/12/07 05:29:25;;;;;;;;;;;;;;;;;;5057499;28;20367;-64
2022/12/07 05:31:50;;;;;;;;;;;;;;;;;;5058462;28;19979;-64
2022/12/07 05:34:16;;;;;;;;;;;;;;;;;;5056758;28;20406;-64
2022/12/07 05:36:41;;;;;;;;;;;;;;;;;;5060678;28;19924;-64
2022/12/07 05:39:07;;;;;;;;;;;;;;;;;;5058469;28;20006;-64
2022/12/07 05:44:16;;;;;;;;;;;;;;;;;;5065742;28;19931;-64
2022/12/07 05:46:41;;;;;;;;;;;;;;;;;;5059695;28;19929;-64
2022/12/07 05:49:07;;;;;;;;;;;;;;;;;;5064230;28;19928;-64
2022/12/07 05:51:32;;;;;;;;;;;;;;;;;;5066535;28;19920;-64
2022/12/07 05:53:57;;;;;;;;;;;;;;;;;;5064450;28;20059;-64
2022/12/07 05:56:23;;;;;;;;;;;;;;;;;;5061415;28;19939;-65
2022/12/07 06:01:32;;;;;;;;;;;;;;;;;;5064460;28;19935;-64
2022/12/07 06:03:57;;;;;;;;;;;;;;;;;;5065002;28;19995;-64
2022/12/07 06:06:22;;;;;;;;;;;;;;;;;;5065022;28;19982;-65
2022/12/07 06:08:48;;;;;;;;;;;;;;;;;;5063310;28;20299;-64
2022/12/07 06:13:57;;;;;;;;;;;;;;;;;;5058403;28;19982;-64
2022/12/07 06:16:22;;;;;;;;;;;;;;;;;;5058565;28;19932;-63
2022/12/07 06:18:48;;;;;;;;;;;;;;;;;;5056714;28;19975;-63
2022/12/07 06:21:14;;;;;;;;;;;;;;;;;;5061618;28;19924;-64
2022/12/07 06:23:39;;;;;;;;;;;;;;;;;;5062563;28;20299;-64
2022/12/07 06:26:04;;;;;;;;;;;;;;;;;;5060473;28;19932;-63
2022/12/07 06:28:30;;;;;;;;;;;;;;;;;;5058428;28;19974;-63
2022/12/07 06:30:59;;;;;;;;;;;;;;;;;;5057872;28;20453;-63
2022/12/07 06:33:24;;;;;;;;;;;;;;;;;;5059587;28;19959;-62
2022/12/07 06:35:50;;;;;;;;;;;;;;;;;;5056358;28;19994;-63
2022/12/07 06:38:15;;;;;;;;;;;;;;;;;;5059004;28;19940;-63
2022/12/07 06:40:40;;;;;;;;;;;;;;;;;;5059015;28;19928;-63
2022/12/07 06:43:06;;;;;;;;;;;;;;;;;;5056314;28;19933;-63
2022/12/07 06:45:31;;;;;;;;;;;;;;;;;;5053518;28;19932;-63
2022/12/07 06:47:56;;;;;;;;;;;;;;;;;;5060542;28;19931;-63
2022/12/07 06:50:21;;;;;;;;;;;;;;;;;;5059617;28;19935;-62
2022/12/07 06:52:47;;;;;;;;;;;;;;;;;;5062855;28;19932;-63
2022/12/07 06:55:12;;;;;;;;;;;;;;;;;;5062710;28;20452;-62
2022/12/07 06:57:37;;;;;;;;;;;;;;;;;;5063962;28;19931;-63
2022/12/07 07:00:03;;;;;;;;;;;;;;;;;;5058762;28;20334;-63
2022/12/07 07:02:28;;;;;;;;;;;;;;;;;;5060832;28;19939;-62
2022/12/07 07:04:53;;;;;;;;;;;;;;;;;;5057995;28;19933;-62
2022/12/07 07:07:19;;;;;;;;;;;;;;;;;;5058249;28;19932;-62
2022/12/07 07:09:44;;;;;;;;;;;;;;;;;;5062604;28;19932;-62
2022/12/07 07:12:09;;;;;;;;;;;;;;;;;;5063207;28;20023;-65
2022/12/07 07:14:34;;;;;;;;;;;;;;;;;;5059542;28;20364;-64
2022/12/07 07:17:00;;;;;;;;;;;;;;;;;;5065186;28;19928;-63
2022/12/07 07:19:25;;;;;;;;;;;;;;;;;;5063242;28;20400;-62
2022/12/07 07:21:50;;;;;;;;;;;;;;;;;;5061135;28;19921;-63
2022/12/07 07:24:16;;;;;;;;;;;;;;;;;;5063317;28;19966;-63
2022/12/07 07:26:41;;;;;;;;;;;;;;;;;;5064526;28;19931;-63
2022/12/07 07:29:06;;;;;;;;;;;;;;;;;;5060752;28;19924;-62
2022/12/07 07:31:31;;;;;;;;;;;;;;;;;;5060601;28;19924;-63
2022/12/07 07:33:57;;;;;;;;;;;;;;;;;;5044020;28;19932;-63
2022/12/07 07:36:22;;;;;;;;;;;;;;;;;;5060508;28;19924;-63
2022/12/07 07:38:47;;;;;;;;;;;;;;;;;;5059486;28;19934;-62
2022/12/07 07:41:12;;;;;;;;;;;;;;;;;;5065492;28;19950;-62
2022/12/07 07:43:38;;;;;;;;;;;;;;;;;;5063111;28;20283;-62
2022/12/07 07:46:03;;;;;;;;;;;;;;;;;;5067550;28;19974;-63
2022/12/07 07:48:28;;;;;;;;;;;;;;;;;;5067406;28;19924;-63
2022/12/07 07:50:54;;;;;;;;;;;;;;;;;;5067151;28;20872;-62
2022/12/07 07:53:19;;;;;;;;;;;;;;;;;;5065923;28;20361;-63
2022/12/07 07:55:54;;;;;;;;;;;;;;;;;;5064739;28;19929;-62
2022/12/07 07:58:19;;;;;;;;;;;;;;;;;;5064314;28;19933;-62
2022/12/07 08:00:44;;;;;;;;;;;;;;;;;;5062774;28;20442;-63
2022/12/07 08:03:10;;;;;;;;;;;;;;;;;;5067030;28;19935;-62
2022/12/07 08:05:36;;;;;;;;;;;;;;;;;;5069246;28;19982;-63
2022/12/07 08:08:01;;;;;;;;;;;;;;;;;;5062696;28;19928;-66
2022/12/07 08:10:27;;;;;;;;;;;;;;;;;;5066663;28;19939;-63
2022/12/07 08:13:10;;;;;;;;;;;;;;;;;;5062347;28;19928;-63
2022/12/07 08:15:36;;;;;;;;;;;;;;;;;;5063106;28;19921;-63
2022/12/07 08:18:01;;;;;;;;;;;;;;;;;;5058437;28;19951;-63
2022/12/07 08:20:27;;;;;;;;;;;;;;;;;;5062821;28;20003;-63
2022/12/07 08:22:52;;;;;;;;;;;;;;;;;;5061380;28;19928;-63
2022/12/07 08:25:17;;;;;;;;;;;;;;;;;;5059758;28;20381;-63
2022/12/07 08:27:43;;;;;;;;;;;;;;;;;;5057672;28;20048;-62
2022/12/07 08:30:08;;;;;;;;;;;;;;;;;;5060412;28;19939;-62
2022/12/07 08:32:33;;;;;;;;;;;;;;;;;;5062943;28;20427;-62
2022/12/07 08:34:58;;;;;;;;;;;;;;;;;;5062489;28;20043;-62
2022/12/07 08:37:24;;;;;;;;;;;;;;;;;;5061265;28;19931;-62
2022/12/07 08:39:49;;;;;;;;;;;;;;;;;;5060365;28;20362;-63
2022/12/07 08:42:14;;;;;;;;;;;;;;;;;;5063235;28;19971;-64
2022/12/07 08:44:40;;;;;;;;;;;;;;;;;;5060714;28;20426;-62
2022/12/07 08:47:06;;;;;;;;;;;;;;;;;;5055860;28;19935;-62
2022/12/07 08:49:34;;;;;;;;;;;;;;;;;;5058759;28;19929;-64
2022/12/07 08:51:59;;;;;;;;;;;;;;;;;;5053955;28;19935;-64
2022/12/07 08:54:25;;;;;;;;;;;;;;;;;;5051417;28;19928;-64
2022/12/07 08:56:53;;;;;;;;;;;;;;;;;;5051946;28;20504;-63
2022/12/07 08:59:19;;;;;;;;;;;;;;;;;;5045375;28;21134;-63
2022/12/07 09:01:44;;;;;;;;;;;;;;;;;;5049049;28;20031;-64
2022/12/07 09:04:10;;;;;;;;;;;;;;;;;;5054688;28;19950;-63
2022/12/07 09:06:35;;;;;;;;;;;;;;;;;;5048635;28;20395;-63
2022/12/07 09:09:01;;;;;;;;;;;;;;;;;;5052687;28;19936;-64
2022/12/07 09:11:26;;;;;;;;;;;;;;;;;;5054982;28;20486;-64
2022/12/07 09:13:52;;;;;;;;;;;;;;;;;;5053479;28;19929;-63
2022/12/07 09:16:17;;;;;;;;;;;;;;;;;;5057463;28;19924;-62
2022/12/07 09:18:42;;;;;;;;;;;;;;;;;;5058563;28;19924;-62
2022/12/07 09:21:08;;;;;;;;;;;;;;;;;;5056482;28;20869;-64
2022/12/07 09:23:33;;;;;;;;;;;;;;;;;;5057725;28;19943;-63
2022/12/07 09:26:00;;;;;;;;;;;;;;;;;;5055035;28;20450;-64
2022/12/07 09:28:25;;;;;;;;;;;;;;;;;;5055338;28;20001;-64
2022/12/07 09:30:50;;;;;;;;;;;;;;;;;;5055489;28;20730;-63
2022/12/07 09:33:15;;;;;;;;;;;;;;;;;;5058011;28;19924;-62
2022/12/07 09:35:45;;;;;;;;;;;;;;;;;;5060362;28;19924;-62
2022/12/07 09:38:10;;;;;;;;;;;;;;;;;;5064181;28;19953;-63
2022/12/07 09:40:35;;;;;;;;;;;;;;;;;;5053354;28;19929;-62
2022/12/07 09:43:00;;;;;;;;;;;;;;;;;;5060830;28;19970;-63
2022/12/07 09:45:36;;;;;;;;;;;;;;;;;;5064465;28;20359;-62
2022/12/07 09:48:04;;;;;;;;;;;;;;;;;;5063075;28;19928;-62
2022/12/07 09:50:30;;;;;;;;;;;;;;;;;;5067700;28;19959;-63
2022/12/07 09:53:03;;;;;;;;;;;;;;;;;;5065565;28;20352;-62
2022/12/07 09:55:29;;;;;;;;;;;;;;;;;;5064961;28;19990;-65
2022/12/07 09:57:55;;;;;;;;;;;;;;;;;;5062628;28;20600;-62
2022/12/07 10:00:22;;;;;;;;;;;;;;;;;;5064496;28;19947;-62
2022/12/07 10:02:50;;;;;;;;;;;;;;;;;;5064802;28;19931;-62
2022/12/07 10:05:18;;;;;;;;;;;;;;;;;;5066595;28;19963;-62
2022/12/07 10:07:43;;;;;;;;;;;;;;;;;;5064438;28;19935;-63
2022/12/07 10:10:14;;;;;;;;;;;;;;;;;;5063469;28;20004;-63
2022/12/07 10:12:58;;;;;;;;;;;;;;;;;;5062104;28;19921;-62
2022/12/07 10:15:36;;;;;;;;;;;;;;;;;;5061272;28;19939;-62
2022/12/07 10:18:01;;;;;;;;;;;;;;;;;;5054757;28;20482;-63
2022/12/07 10:20:27;;;;;;;;;;;;;;;;;;5057616;28;19982;-63
2022/12/07 10:22:56;;;;;;;;;;;;;;;;;;5053335;28;20724;-63
2022/12/07 10:25:22;;;;;;;;;;;;;;;;;;5057469;28;20630;-63
2022/12/07 10:28:02;;;;;;;;;;;;;;;;;;5060905;28;19920;-62
2022/12/07 10:30:27;;;;;;;;;;;;;;;;;;5053780;28;19924;-62
2022/12/07 10:32:52;;;;;;;;;;;;;;;;;;5055807;28;19925;-63
2022/12/07 10:35:21;;;;;;;;;;;;;;;;;;5056989;28;19956;-62
2022/12/07 10:37:46;;;;;;;;;;;;;;;;;;5052488;28;19936;-62
2022/12/07 10:40:27;;;;;;;;;;;;;;;;;;5053453;28;19929;-63
2022/12/07 10:43:04;;;;;;;;;;;;;;;;;;5057390;28;19921;-62
2022/12/07 10:45:30;;;;;;;;;;;;;;;;;;5057837;28;19943;-62
2022/12/07 10:47:58;;;;;;;;;;;;;;;;;;5054388;28;20277;-62
2022/12/07 10:50:43;;;;;;;;;;;;;;;;;;5058438;28;20441;-63
2022/12/07 10:53:15;;;;;;;;;;;;;;;;;;5054380;28;19928;-62
2022/12/07 10:55:46;;;;;;;;;;;;;;;;;;5054391;28;19958;-63
2022/12/07 10:58:18;;;;;;;;;;;;;;;;;;5051516;28;20368;-62
2022/12/07 11:00:44;;;;;;;;;;;;;;;;;;5055102;28;19929;-62
2022/12/07 11:03:33;;;;;;;;;;;;;;;;;;5051131;28;19986;-62
2022/12/07 11:05:58;;;;;;;;;;;;;;;;;;5025648;28;20611;-63
2022/12/07 11:08:36;;;;;;;;;;;;;;;;;;5051347;28;20056;-62
2022/12/07 11:11:06;;;;;;;;;;;;;;;;;;5050771;28;20019;-64
2022/12/07 11:13:42;;;;;;;;;;;;;;;;;;5053612;28;19939;-62
2022/12/07 11:16:10;;;;;;;;;;;;;;;;;;5052190;28;19940;-62
2022/12/07 11:18:39;;;;;;;;;;;;;;;;;;5056209;28;19928;-62
2022/12/07 11:21:13;;;;;;;;;;;;;;;;;;5070970;28;20467;-62
2022/12/07 11:23:41;;;;;;;;;;;;;;;;;;5055637;28;19932;-62
2022/12/07 11:26:13;;;;;;;;;;;;;;;;;;5052584;28;20027;-62
2022/12/07 11:28:38;;;;;;;;;;;;;;;;;;5052852;28;20015;-63
2022/12/07 11:31:07;;;;;;;;;;;;;;;;;;5053522;28;20007;-63
2022/12/07 11:33:51;;;;;;;;;;;;;;;;;;5058322;28;19925;-62
2022/12/07 11:36:28;;;;;;;;;;;;;;;;;;5053619;28;19924;-62
2022/12/07 11:38:55;;;;;;;;;;;;;;;;;;5060260;28;19929;-62
2022/12/07 11:41:27;;;;;;;;;;;;;;;;;;5054102;28;19945;-63
2022/12/07 11:43:54;;;;;;;;;;;;;;;;;;5061505;28;19936;-63
2022/12/07 11:46:24;;;;;;;;;;;;;;;;;;5060448;28;19955;-63
2022/12/07 11:49:03;;;;;;;;;;;;;;;;;;5061111;28;19925;-63
2022/12/07 11:51:31;;;;;;;;;;;;;;;;;;5064580;28;19952;-63
2022/12/07 11:54:12;;;;;;;;;;;;;;;;;;5056886;28;19933;-62
2022/12/07 11:56:37;;;;;;;;;;;;;;;;;;5063168;28;19935;-62
2022/12/07 11:59:21;;;;;;;;;;;;;;;;;;5057894;28;20395;-61
2022/12/07 12:01:55;;;;;;;;;;;;;;;;;;5052205;28;20495;-61
2022/12/07 12:04:35;;;;;;;;;;;;;;;;;;5055367;28;19939;-62
2022/12/07 12:07:00;;;;;;;;;;;;;;;;;;5058405;28;19931;-64
2022/12/07 12:09:26;;;;;;;;;;;;;;;;;;5057379;28;22208;-64
2022/12/07 12:12:00;;;;;;;;;;;;;;;;;;5051252;28;19925;-63
2022/12/07 12:14:28;;;;;;;;;;;;;;;;;;5058973;28;20004;-63
2022/12/07 12:17:03;;;;;;;;;;;;;;;;;;5059039;28;19928;-61
2022/12/07 12:19:47;;;;;;;;;;;;;;;;;;5064811;28;19932;-61
2022/12/07 12:22:16;;;;;;;;;;;;;;;;;;5054909;28;19940;-61
2022/12/07 12:24:42;;;;;;;;;;;;;;;;;;5051219;28;19955;-63
2022/12/07 12:27:09;;;;;;;;;;;;;;;;;;5055436;28;19935;-62
2022/12/07 12:29:43;;;;;;;;;;;;;;;;;;5064994;28;19924;-61
2022/12/07 12:32:21;;;;;;;;;;;;;;;;;;5063666;28;19924;-62
2022/12/07 12:34:47;;;;;;;;;;;;;;;;;;5066007;28;19932;-63
2022/12/07 12:37:31;;;;;;;;;;;;;;;;;;5063706;28;19984;-64
2022/12/07 12:40:27;;;;;;;;;;;;;;;;;;5061145;28;19967;-64
2022/12/07 12:42:56;;;;;;;;;;;;;;;;;;5045481;28;19960;-63
2022/12/07 12:45:28;;;;;;;;;;;;;;;;;;5060293;28;20392;-63
2022/12/07 12:47:53;;;;;;;;;;;;;;;;;;5066501;28;19924;-62
2022/12/07 12:50:21;;;;;;;;;;;;;;;;;;5065845;28;19935;-62
2022/12/07 12:52:51;;;;;;;;;;;;;;;;;;5060484;28;19940;-63
2022/12/07 12:55:20;;;;;;;;;;;;;;;;;;5064356;28;20020;-64
2022/12/07 12:57:46;;;;;;;;;;;;;;;;;;5062490;28;19921;-63
2022/12/07 13:00:21;;;;;;;;;;;;;;;;;;5062089;28;20406;-63
2022/12/07 13:02:51;;;;;;;;;;;;;;;;;;5060392;28;19925;-64
2022/12/07 13:05:36;;;;;;;;;;;;;;;;;;5056720;28;19939;-63
2022/12/07 13:08:04;;;;;;;;;;;;;;;;;;5052761;28;20643;-67
2022/12/07 13:10:50;;;;;;;;;;;;;;;;;;5060547;28;19924;-65
2022/12/07 13:13:17;;;;;;;;;;;;;;;;;;5052504;28;20090;-62
2022/12/07 13:15:53;;;;;;;;;;;;;;;;;;5051179;28;20283;-61
2022/12/07 13:18:27;;;;;;;;;;;;;;;;;;5053518;28;20029;-62
2022/12/07 13:20:54;;;;;;;;;;;;;;;;;;5060206;28;19932;-62
2022/12/07 13:23:29;;;;;;;;;;;;;;;;;;5052143;28;19928;-62
2022/12/07 13:25:59;;;;;;;;;;;;;;;;;;5050506;28;19924;-62
2022/12/07 13:28:26;;;;;;;;;;;;;;;;;;5071797;28;19933;-62
2022/12/07 13:31:04;;;;;;;;;;;;;;;;;;5052197;28;21213;-64
2022/12/07 13:33:30;;;;;;;;;;;;;;;;;;5055096;28;19948;-63
2022/12/07 13:35:56;;;;;;;;;;;;;;;;;;5053031;28;19932;-63
2022/12/07 13:38:36;;;;;;;;;;;;;;;;;;5053264;28;19928;-63
2022/12/07 13:41:25;;;;;;;;;;;;;;;;;;5063628;28;19933;-64
2022/12/07 13:44:05;;;;;;;;;;;;;;;;;;5044252;28;19974;-63
2022/12/07 13:46:36;;;;;;;;;;;;;;;;;;5050549;28;19931;-63
2022/12/07 13:49:01;;;;;;;;;;;;;;;;;;5052491;28;20386;-62
2022/12/07 13:51:27;;;;;;;;;;;;;;;;;;5060607;28;19932;-63
2022/12/07 13:53:54;;;;;;;;;;;;;;;;;;5060900;28;19979;-62
2022/12/07 13:56:21;;;;;;;;;;;;;;;;;;5051864;28;20334;-64
2022/12/07 13:58:47;;;;;;;;;;;;;;;;;;5062733;28;19991;-64
2022/12/07 14:01:13;;;;;;;;;;;;;;;;;;5062242;28;20446;-64
2022/12/07 14:03:38;;;;;;;;;;;;;;;;;;5056923;28;20432;-65
2022/12/07 14:06:27;;;;;;;;;;;;;;;;;;5062124;28;19970;-68
2022/12/07 14:09:28;;;;;;;;;;;;;;;;;;5055962;28;19924;-64
2022/12/07 14:11:54;;;;;;;;;;;;;;;;;;4978688;28;19930;-63
2022/12/07 14:14:21;;;;;;;;;;;;;;;;;;5044549;28;20007;-63
2022/12/07 14:17:05;;;;;;;;;;;;;;;;;;5063033;28;20390;-63
2022/12/07 14:19:44;;;;;;;;;;;;;;;;;;5061541;28;20015;-64
2022/12/07 14:22:23;;;;;;;;;;;;;;;;;;5056780;28;19925;-64
2022/12/07 14:24:49;;;;;;;;;;;;;;;;;;5059854;28;20437;-64
2022/12/07 14:27:19;;;;;;;;;;;;;;;;;;5058700;28;19936;-64
2022/12/07 14:29:44;;;;;;;;;;;;;;;;;;5057226;28;19928;-64
2022/12/07 14:32:16;;;;;;;;;;;;;;;;;;5056687;28;19979;-64
2022/12/07 14:34:41;;;;;;;;;;;;;;;;;;5059943;28;19932;-64
2022/12/07 14:37:08;;;;;;;;;;;;;;;;;;5056420;28;19924;-64
2022/12/07 14:39:34;;;;;;;;;;;;;;;;;;5054179;28;19924;-65
2022/12/07 14:41:59;;;;;;;;;;;;;;;;;;5059974;28;19935;-64
2022/12/07 14:44:24;;;;;;;;;;;;;;;;;;5057966;28;20384;-65
2022/12/07 14:46:50;;;;;;;;;;;;;;;;;;5057897;28;19928;-64
2022/12/07 14:49:16;;;;;;;;;;;;;;;;;;5056562;28;19920;-63
2022/12/07 14:51:42;;;;;;;;;;;;;;;;;;5058174;28;20461;-63
2022/12/07 14:54:13;;;;;;;;;;;;;;;;;;5049595;28;20566;-63
2022/12/07 14:56:38;;;;;;;;;;;;;;;;;;5056131;28;19968;-63
2022/12/07 14:59:03;;;;;;;;;;;;;;;;;;5058981;28;19975;-63
2022/12/07 15:01:29;;;;;;;;;;;;;;;;;;5060674;28;20292;-63
2022/12/07 15:03:54;;;;;;;;;;;;;;;;;;5051838;28;19924;-63
2022/12/07 15:06:19;;;;;;;;;;;;;;;;;;5058156;28;20073;-63
2022/12/07 15:08:45;;;;;;;;;;;;;;;;;;5060491;28;20019;-64
2022/12/07 15:11:12;;;;;;;;;;;;;;;;;;5060903;28;19976;-64
2022/12/07 15:16:21;;;;;;;;;;;;;;;;;;5060218;28;19935;-64
2022/12/07 15:18:46;;;;;;;;;;;;;;;;;;5053962;28;20302;-64
2022/12/07 15:21:13;;;;;;;;;;;;;;;;;;5062505;28;20295;-64
2022/12/07 15:23:39;;;;;;;;;;;;;;;;;;5058766;28;19932;-64
2022/12/07 15:26:04;;;;;;;;;;;;;;;;;;5062910;28;19935;-64
2022/12/07 15:28:29;;;;;;;;;;;;;;;;;;5057436;28;19929;-64
2022/12/07 15:30:54;;;;;;;;;;;;;;;;;;5054899;28;19929;-64
2022/12/07 15:33:20;;;;;;;;;;;;;;;;;;5055237;28;20399;-64
2022/12/07 15:35:45;;;;;;;;;;;;;;;;;;5055085;28;19929;-64
2022/12/07 15:38:11;;;;;;;;;;;;;;;;;;5055392;28;19932;-64
2022/12/07 15:40:37;;;;;;;;;;;;;;;;;;5071212;28;19994;-63
2022/12/07 15:43:03;;;;;;;;;;;;;;;;;;5060799;28;20330;-64
2022/12/07 15:45:28;;;;;;;;;;;;;;;;;;5061324;28;19932;-65
2022/12/07 15:47:55;;;;;;;;;;;;;;;;;;5064052;28;19956;-64
2022/12/07 15:50:20;;;;;;;;;;;;;;;;;;5064038;28;19931;-65
2022/12/07 15:52:46;;;;;;;;;;;;;;;;;;5062003;28;19928;-65
2022/12/07 15:55:11;;;;;;;;;;;;;;;;;;5060384;28;19928;-64
2022/12/07 15:57:37;;;;;;;;;;;;;;;;;;5060569;28;20658;-64
2022/12/07 16:00:03;;;;;;;;;;;;;;;;;;5061399;28;19932;-64
2022/12/07 16:02:28;;;;;;;;;;;;;;;;;;5069063;28;19940;-65
2022/12/07 16:04:54;;;;;;;;;;;;;;;;;;5067204;28;20374;-65
2022/12/07 16:07:19;;;;;;;;;;;;;;;;;;5065459;28;19920;-66
2022/12/07 16:09:45;;;;;;;;;;;;;;;;;;5059706;28;19931;-66
2022/12/07 16:12:11;;;;;;;;;;;;;;;;;;5057791;28;19928;-66
2022/12/07 16:14:37;;;;;;;;;;;;;;;;;;5059109;28;19940;-66
2022/12/07 16:17:04;;;;;;;;;;;;;;;;;;5054498;28;20005;-66
2022/12/07 16:19:29;;;;;;;;;;;;;;;;;;5057884;28;19932;-66
2022/12/07 16:21:54;;;;;;;;;;;;;;;;;;5062043;28;19931;-67
2022/12/07 16:26:55;;;;;;;;;;;;;;;;;;4502715;22;19964;-69
2022/12/07 16:29:21;;;;;;;;;;;;;;;;;;5047548;28;19971;-70
2022/12/07 16:34:22;;;;;;;;;;;;;;;;;;4386531;22;20611;-68
2022/12/07 16:36:47;;;;;;;;;;;;;;;;;;5077003;28;19974;-67
2022/12/07 16:39:13;;;;;;;;;;;;;;;;;;5081102;28;19924;-68
2022/12/07 16:41:38;;;;;;;;;;;;;;;;;;5078102;28;19951;-67
2022/12/07 16:44:05;;;;;;;;;;;;;;;;;;5088056;28;19924;-67
2022/12/07 16:46:34;;;;;;;;;;;;;;;;;;5078952;28;19935;-71
2022/12/07 16:48:59;;;;;;;;;;;;;;;;;;5084822;28;20452;-73
2022/12/07 16:51:24;;;;;;;;;;;;;;;;;;5078077;28;19933;-70
2022/12/07 16:53:52;;;;;;;;;;;;;;;;;;5076218;28;20290;-69
2022/12/07 16:56:18;;;;;;;;;;;;;;;;;;5078130;28;20006;-69
2022/12/07 16:58:43;;;;;;;;;;;;;;;;;;5072357;28;19940;-67
2022/12/07 17:01:16;;;;;;;;;;;;;;;;;;5079518;28;19920;-67
2022/12/07 17:03:41;;;;;;;;;;;;;;;;;;5079346;28;19931;-68
2022/12/07 17:06:17;;;;;;;;;;;;;;;;;;5079025;28;19924;-67
2022/12/07 17:08:42;;;;;;;;;;;;;;;;;;5082229;28;20035;-65
2022/12/07 17:11:15;;;;;;;;;;;;;;;;;;5080685;28;20035;-67